createdAt,value
2019-04-23T00:10:24.881Z,6.25
2019-04-23T00:12:53.014Z,6.10
2019-04-23T00:15:21.499Z,5.83
2019-04-23T00:18:12.512Z,6.00
2019-04-23T00:20:28.209Z,5.23
2019-04-23T00:23:12.918Z,6.30
2019-04-23T00:25:49.178Z,5.17
2019-04-23T00:28:22.978Z,8.70
2019-04-23T00:30:49.649Z,6.73
2019-04-23T00:33:18.613Z,6.90
2019-04-23T00:35:44.043Z,5.50
2019-04-23T00:40:52.527Z,9.73
2019-04-23T00:43:37.730Z,5.80
2019-04-23T00:45:48.855Z,5.43
2019-04-23T00:48:28.312Z,6.40
2019-04-23T00:53:25.234Z,5.57
2019-04-23T00:55:55.737Z,6.47
2019-04-23T00:58:38.094Z,7.37
2019-04-23T01:01:00.334Z,7.63
2019-04-23T01:03:25.187Z,7.10
2019-04-23T01:05:59.145Z,6.80
2019-04-23T01:08:33.250Z,5.23
2019-04-23T01:11:08.289Z,5.57
2019-04-23T01:13:49.168Z,5.53
2019-04-23T01:19:06.785Z,5.50
2019-04-23T01:21:28.348Z,5.90
2019-04-23T01:24:29.727Z,5.07
2019-04-23T01:27:44.627Z,4.90
2019-04-23T01:30:09.744Z,5.80
2019-04-23T01:32:51.915Z,5.53
2019-04-23T01:35:17.684Z,5.60
2019-04-23T01:40:12.378Z,5.93
2019-04-23T01:42:44.527Z,8.80
2019-04-23T01:47:46.023Z,8.27
2019-04-23T01:55:22.682Z,6.13
2019-04-23T01:57:58.882Z,6.57
2019-04-23T02:00:27.314Z,6.37
2019-04-23T02:02:58.557Z,5.40
2019-04-23T02:05:27.525Z,5.70
2019-04-23T02:07:56.378Z,6.83
2019-04-23T02:13:01.811Z,8.50
2019-04-23T02:15:32.017Z,6.40
2019-04-23T02:20:36.979Z,6.60
2019-04-23T02:23:32.769Z,9.07
2019-04-23T02:28:33.037Z,7.33
2019-04-23T02:43:13.076Z,5.53
2019-04-23T02:45:39.490Z,8.33
2019-04-23T02:55:43.061Z,7.13
2019-04-23T03:00:40.077Z,5.83
2019-04-23T03:03:06.046Z,7.13
2019-04-23T03:05:45.415Z,6.53
2019-04-23T03:08:06.221Z,8.93
2019-04-23T03:13:32.524Z,5.70
2019-04-23T03:16:16.105Z,6.10
2019-04-23T03:21:57.659Z,5.67
2019-04-23T03:24:31.162Z,9.67
2019-04-23T03:27:07.377Z,5.43
2019-04-23T03:39:41.430Z,6.03
2019-04-23T03:41:59.699Z,7.73
2019-04-23T03:44:42.556Z,5.27
2019-04-23T03:49:43.903Z,5.73
2019-04-23T03:52:14.126Z,8.00
2019-04-23T03:59:52.165Z,6.60
2019-04-23T04:07:22.085Z,7.55
2019-04-23T04:09:47.667Z,8.73
2019-04-23T04:12:21.245Z,7.60
2019-04-23T04:17:20.114Z,7.72
2019-04-23T04:19:56.186Z,7.33
2019-04-23T04:22:38.075Z,7.47
2019-04-23T04:25:01.473Z,6.77
2019-04-23T04:27:36.869Z,7.53
2019-04-23T04:30:25.323Z,6.80
2019-04-23T04:32:42.335Z,6.72
2019-04-23T04:35:18.881Z,7.40
2019-04-23T04:42:42.260Z,7.37
2019-04-23T04:45:20.406Z,7.90
2019-04-23T04:47:44.833Z,9.78
2019-04-23T04:50:19.422Z,8.63
2019-04-23T04:55:21.022Z,9.75
2019-04-23T05:08:02.549Z,8.78
2019-04-23T05:14:21.028Z,8.68
2019-04-23T05:19:28.725Z,8.83
2019-04-23T05:21:54.920Z,7.93
2019-04-23T05:24:21.674Z,8.83
2019-04-23T05:26:57.979Z,10.10
2019-04-23T05:29:31.365Z,7.47
2019-04-23T05:32:02.873Z,7.35
2019-04-23T05:37:11.531Z,11.55
2019-04-23T05:39:49.500Z,7.37
2019-04-23T06:35:19.091Z,9.13
2019-04-23T06:37:49.837Z,7.53
2019-04-23T06:40:08.444Z,10.60
2019-04-23T06:42:54.726Z,8.00
2019-04-23T06:45:25.351Z,9.60
2019-04-23T06:47:54.165Z,12.13
2019-04-23T06:50:27.202Z,7.47
2019-04-23T06:53:01.924Z,9.97
2019-04-23T06:55:37.424Z,11.73
2019-04-23T06:58:13.549Z,7.50
2019-04-23T07:00:49.152Z,10.30
2019-04-23T07:03:22.126Z,11.63
2019-04-23T07:23:53.831Z,9.03
2019-04-23T07:26:27.386Z,6.57
2019-04-23T07:28:49.287Z,9.83
2019-04-23T07:31:26.666Z,11.73
2019-04-23T07:34:02.501Z,6.40
2019-04-23T07:36:38.895Z,9.57
2019-04-23T07:39:25.546Z,10.67
2019-04-23T07:42:28.057Z,6.13
2019-04-23T07:45:17.396Z,4.90
2019-04-23T18:01:11.009Z,2.00
2019-04-23T18:03:46.021Z,1.87
2019-04-23T18:06:21.356Z,1.57
2019-04-23T18:08:32.916Z,3.13
2019-04-23T18:13:57.398Z,3.00
2019-04-23T18:16:30.392Z,2.50
2019-04-23T18:24:27.698Z,2.85
2019-04-23T18:29:31.632Z,3.10
2019-04-23T18:32:11.077Z,5.85
2019-04-23T18:34:56.949Z,3.85
2019-04-23T18:37:19.387Z,2.83
2019-04-23T18:39:47.084Z,3.12
2019-04-23T18:42:29.651Z,3.15
2019-04-23T18:44:52.171Z,3.80
2019-04-23T18:47:35.419Z,4.80
2019-04-23T18:50:17.628Z,4.17
2019-04-23T18:55:14.092Z,5.75
2019-04-23T18:57:48.580Z,3.80
2019-04-23T19:00:18.880Z,4.22
2019-04-23T19:03:11.387Z,4.50
2019-04-23T19:08:58.277Z,4.33
2019-04-23T19:11:51.415Z,4.72
2019-04-23T19:14:18.457Z,4.55
2019-04-23T19:17:07.302Z,4.97
2019-04-23T19:24:13.820Z,4.60
2019-04-23T19:32:00.866Z,5.03
2019-04-23T19:37:06.075Z,5.42
2019-04-23T19:39:40.570Z,6.12
2019-04-23T19:44:44.078Z,5.80
2019-04-23T19:49:40.667Z,7.30
2019-04-23T19:52:10.770Z,5.65
2019-04-23T19:54:55.314Z,5.45
2019-04-23T19:57:19.684Z,5.47
2019-04-23T19:59:54.268Z,5.97
2019-04-23T20:20:19.817Z,4.43
2019-04-23T20:22:43.562Z,4.17
2019-04-23T20:27:47.948Z,4.23
2019-04-23T20:36:00.623Z,5.00
2019-04-23T20:40:54.136Z,4.40
2019-04-23T20:43:22.855Z,5.20
2019-04-23T20:45:58.938Z,4.97
2019-04-23T20:48:32.408Z,4.60
2019-04-23T20:51:18.036Z,4.62
2019-04-23T20:53:36.234Z,4.70
2019-04-23T20:56:10.128Z,4.17
2019-04-23T20:58:54.779Z,4.62
2019-04-23T21:01:30.575Z,4.35
2019-04-23T21:06:30.326Z,4.33
2019-04-23T21:09:17.229Z,4.75
2019-04-23T21:11:46.261Z,4.57
2019-04-23T21:16:37.416Z,4.40
2019-04-23T21:19:02.038Z,4.10
2019-04-23T21:21:42.958Z,4.63
2019-04-23T21:24:26.436Z,4.25
2019-04-23T21:26:44.188Z,3.80
2019-04-23T21:29:21.563Z,3.87
2019-04-23T21:31:47.712Z,4.10
2019-04-23T21:34:17.331Z,3.87
2019-04-23T21:36:49.275Z,3.53
2019-04-23T21:42:44.408Z,3.43
2019-04-23T21:44:59.306Z,4.23
2019-04-23T21:47:44.212Z,4.97
2019-04-23T21:50:12.318Z,3.63
2019-04-23T21:52:36.180Z,3.60
2019-04-23T21:55:04.055Z,3.40
2019-04-23T21:57:44.424Z,3.93
2019-04-23T22:00:07.855Z,3.00
2019-04-23T22:02:45.566Z,2.67
2019-04-23T22:05:19.390Z,2.63
2019-04-23T22:08:02.215Z,4.17
2019-04-23T22:10:18.179Z,2.50
2019-04-23T22:13:02.121Z,2.57
2019-04-23T22:55:23.575Z,1.30
2019-04-23T22:58:05.172Z,1.42
2019-04-23T23:11:02.572Z,1.60
2019-04-23T23:15:54.667Z,1.22
2019-04-23T23:23:25.130Z,1.03
2019-04-23T23:26:02.799Z,0.87
2019-04-23T23:31:06.871Z,0.87
2019-04-23T23:33:35.919Z,1.47
2019-04-23T23:36:05.854Z,0.80
2019-04-23T23:38:41.759Z,0.73
2019-04-23T23:43:44.222Z,0.80
2019-04-23T23:46:31.092Z,0.50
2019-04-23T23:48:41.794Z,0.60
2019-04-23T23:51:17.825Z,0.70
2019-04-23T23:54:05.061Z,0.73
2019-04-23T23:56:17.343Z,0.70
